Time;durP1;ratioP1;P1;durP2;ratioP2;P2;SDS_P1;SDS_P2;PMS_P1;PMS_P2;Temp;Humidity;BMP_temperature;BMP_pressure;BME280_temperature;BME280_humidity;BME280_pressure;Samples;Min_cycle;Max_cycle;Signal;HPM_P1;HPM_P2
2021/09/01 00:01:13;;;;;;;21.63;8.43;;;12.60;99.90;;;;;;4865213;29;20176;-89
2021/09/01 00:03:39;;;;;;;17.98;8.18;;;12.60;99.90;;;;;;4872210;29;20049;-89
2021/09/01 00:06:05;;;;;;;13.23;8.05;;;12.50;99.90;;;;;;4865771;29;20487;-89
2021/09/01 00:08:34;;;;;;;16.80;9.00;;;12.50;99.90;;;;;;4865210;29;20112;-91
2021/09/01 00:11:00;;;;;;;20.38;8.80;;;12.50;99.90;;;;;;4865019;29;20535;-88
2021/09/01 00:13:26;;;;;;;23.52;9.82;;;12.50;99.90;;;;;;4864548;29;20037;-88
2021/09/01 00:15:51;;;;;;;21.58;10.23;;;12.50;99.90;;;;;;4864166;29;20044;-89
2021/09/01 00:18:17;;;;;;;22.55;10.18;;;12.50;99.90;;;;;;4863720;29;20036;-90
2021/09/01 00:20:43;;;;;;;19.35;9.77;;;12.40;99.90;;;;;;4863735;29;20029;-89
2021/09/01 00:23:14;;;;;;;19.00;9.07;;;12.40;99.90;;;;;;4863477;29;20033;-89
2021/09/01 00:25:40;;;;;;;20.55;10.05;;;12.40;99.90;;;;;;4863272;29;20045;-90
2021/09/01 00:28:06;;;;;;;20.35;10.57;;;12.30;99.90;;;;;;4863966;29;20025;-90
2021/09/01 00:30:32;;;;;;;14.35;8.57;;;12.30;99.90;;;;;;4863817;29;20125;-90
2021/09/01 00:32:58;;;;;;;23.40;11.13;;;12.30;99.90;;;;;;4863471;29;20035;-89
2021/09/01 00:35:23;;;;;;;21.38;11.30;;;12.30;99.90;;;;;;4876443;29;20081;-89
2021/09/01 00:37:49;;;;;;;32.10;13.85;;;12.30;99.90;;;;;;4863047;29;20538;-90
2021/09/01 00:40:15;;;;;;;25.48;11.68;;;12.30;99.90;;;;;;4862834;29;20057;-89
2021/09/01 00:42:41;;;;;;;28.35;13.45;;;12.30;99.90;;;;;;4862452;29;20040;-90
2021/09/01 00:45:08;;;;;;;28.95;13.80;;;12.30;99.90;;;;;;4879129;29;20506;-88
2021/09/01 00:47:35;;;;;;;28.17;15.00;;;12.30;99.90;;;;;;4863435;29;20035;-89
2021/09/01 00:50:08;;;;;;;25.25;13.98;;;12.30;99.90;;;;;;4863548;29;20049;-88
2021/09/01 00:52:40;;;;;;;29.17;14.27;;;12.30;99.90;;;;;;4863843;29;20135;-88
2021/09/01 00:55:07;;;;;;;28.65;13.88;;;12.30;99.90;;;;;;4863694;29;20115;-89
2021/09/01 00:57:36;;;;;;;31.25;14.45;;;12.30;99.90;;;;;;4862912;29;20037;-89
2021/09/01 01:00:03;;;;;;;20.88;11.60;;;12.30;99.90;;;;;;4862768;29;20112;-92
2021/09/01 01:02:28;;;;;;;26.83;14.88;;;12.30;99.90;;;;;;4863089;29;20033;-89
2021/09/01 01:04:54;;;;;;;26.20;12.32;;;12.40;99.90;;;;;;4862898;29;20029;-87
2021/09/01 01:07:20;;;;;;;28.55;13.23;;;12.40;99.90;;;;;;4866360;29;20036;-89
2021/09/01 01:09:48;;;;;;;32.33;14.13;;;12.40;99.90;;;;;;4863126;29;20057;-90
2021/09/01 01:12:17;;;;;;;28.02;14.15;;;12.40;99.90;;;;;;4863247;29;20100;-90
2021/09/01 01:14:45;;;;;;;25.08;14.00;;;12.40;99.90;;;;;;4863518;29;20033;-89
2021/09/01 01:17:13;;;;;;;28.55;13.43;;;12.40;99.90;;;;;;4863389;29;20028;-90
2021/09/01 01:19:48;;;;;;;27.00;13.35;;;12.40;99.90;;;;;;4863547;29;20037;-90
2021/09/01 01:22:16;;;;;;;23.10;12.57;;;12.40;99.90;;;;;;4863201;29;20088;-90
2021/09/01 01:24:49;;;;;;;24.95;12.13;;;12.40;99.90;;;;;;4863114;29;20029;-90
2021/09/01 01:27:19;;;;;;;23.60;12.75;;;12.30;99.90;;;;;;4862368;29;20056;-90
2021/09/01 01:29:45;;;;;;;24.95;13.18;;;12.30;99.90;;;;;;4863006;29;20047;-90
2021/09/01 01:32:11;;;;;;;26.20;12.40;;;12.30;99.90;;;;;;4863173;29;20025;-90
2021/09/01 01:34:36;;;;;;;30.33;13.10;;;12.30;99.90;;;;;;4863073;29;20041;-90
2021/09/01 01:37:07;;;;;;;24.23;12.50;;;12.20;99.90;;;;;;4862299;29;20033;-90
2021/09/01 01:39:33;;;;;;;20.35;10.20;;;12.20;99.90;;;;;;4862750;29;20506;-90
2021/09/01 01:41:59;;;;;;;16.88;9.43;;;12.20;99.90;;;;;;4862581;29;20033;-90
2021/09/01 01:44:24;;;;;;;25.85;12.88;;;12.20;99.90;;;;;;4862601;29;20193;-90
2021/09/01 01:46:50;;;;;;;21.65;10.82;;;12.10;99.90;;;;;;4862547;29;20087;-90
2021/09/01 01:49:18;;;;;;;24.50;13.10;;;12.10;99.90;;;;;;4862638;29;20076;-90
2021/09/01 01:51:50;;;;;;;23.73;13.18;;;12.10;99.90;;;;;;4862795;29;20526;-89
2021/09/01 01:54:16;;;;;;;24.73;13.90;;;12.00;99.90;;;;;;4862688;29;20096;-90
2021/09/01 01:56:43;;;;;;;24.08;12.70;;;12.00;99.90;;;;;;4862913;29;20033;-90
2021/09/01 01:59:09;;;;;;;24.40;13.43;;;12.00;99.90;;;;;;4879487;29;20037;-90
2021/09/01 02:01:35;;;;;;;25.17;13.02;;;12.00;99.90;;;;;;4862278;29;20048;-90
2021/09/01 02:04:00;;;;;;;27.27;13.88;;;12.00;99.90;;;;;;4862523;29;20021;-90
2021/09/01 02:06:26;;;;;;;24.35;14.13;;;12.00;99.90;;;;;;4863285;29;20043;-90
2021/09/01 02:08:52;;;;;;;26.17;12.75;;;12.00;99.90;;;;;;4863433;29;20025;-90
2021/09/01 02:11:18;;;;;;;22.10;12.32;;;12.00;99.90;;;;;;4863161;29;20055;-90
2021/09/01 02:13:43;;;;;;;23.42;12.38;;;12.00;99.90;;;;;;4864598;29;20033;-89
2021/09/01 02:16:09;;;;;;;26.00;12.27;;;12.00;99.90;;;;;;4867386;29;20400;-90
2021/09/01 02:18:35;;;;;;;21.45;12.48;;;12.00;99.90;;;;;;4864639;29;20033;-90
2021/09/01 02:21:00;;;;;;;22.52;12.15;;;12.00;99.90;;;;;;4862622;29;20512;-89
2021/09/01 02:23:26;;;;;;;20.70;10.95;;;12.00;99.90;;;;;;4862152;29;20028;-89
2021/09/01 02:25:52;;;;;;;22.92;11.63;;;12.10;99.90;;;;;;4862002;29;20049;-89
2021/09/01 02:28:17;;;;;;;21.45;11.98;;;12.10;99.90;;;;;;4862678;29;20380;-90
2021/09/01 02:30:43;;;;;;;22.10;12.23;;;12.10;99.90;;;;;;4863161;29;20040;-89
2021/09/01 02:33:09;;;;;;;25.17;12.32;;;12.10;99.90;;;;;;4862716;29;20043;-90
2021/09/01 02:35:34;;;;;;;22.95;12.45;;;12.10;99.90;;;;;;4864958;29;20055;-90
2021/09/01 02:38:00;;;;;;;20.45;12.18;;;12.10;99.90;;;;;;4864689;29;20396;-89
2021/09/01 02:40:26;;;;;;;22.23;11.63;;;12.10;99.90;;;;;;4867263;29;20403;-89
2021/09/01 02:42:52;;;;;;;21.88;11.13;;;12.10;99.90;;;;;;4879113;29;20017;-88
2021/09/01 02:45:18;;;;;;;19.70;11.10;;;12.10;99.90;;;;;;4877182;29;20029;-90
2021/09/01 02:47:45;;;;;;;20.55;11.15;;;12.10;99.90;;;;;;4872833;29;20081;-90
2021/09/01 02:50:12;;;;;;;21.58;11.85;;;12.20;99.90;;;;;;4873500;29;20029;-89
2021/09/01 02:52:37;;;;;;;22.02;11.50;;;12.20;99.90;;;;;;4872228;29;20044;-89
2021/09/01 02:55:04;;;;;;;21.42;11.30;;;12.20;99.90;;;;;;4867115;29;20022;-90
2021/09/01 02:57:30;;;;;;;24.52;12.10;;;12.20;99.90;;;;;;4868515;29;20029;-89
2021/09/01 02:59:55;;;;;;;21.88;10.57;;;12.30;99.90;;;;;;4866596;29;20029;-89
2021/09/01 03:02:21;;;;;;;24.45;10.82;;;12.30;99.90;;;;;;4866440;29;20076;-89
2021/09/01 03:04:47;;;;;;;24.63;10.98;;;12.30;99.90;;;;;;4866617;29;20123;-89
2021/09/01 03:07:12;;;;;;;21.10;10.80;;;12.30;99.90;;;;;;4866144;29;20093;-90
2021/09/01 03:09:38;;;;;;;21.33;10.65;;;12.30;99.90;;;;;;4866648;29;20355;-90
2021/09/01 03:12:04;;;;;;;19.08;9.77;;;12.30;99.90;;;;;;4866304;29;20638;-90
2021/09/01 03:14:30;;;;;;;20.35;9.82;;;12.30;99.90;;;;;;4866408;29;20128;-90
2021/09/01 03:16:56;;;;;;;24.40;10.93;;;12.30;99.90;;;;;;4866391;29;20029;-89
2021/09/01 03:19:22;;;;;;;21.33;10.82;;;12.40;99.90;;;;;;4866508;29;20324;-89
2021/09/01 03:21:49;;;;;;;19.65;9.73;;;12.40;99.90;;;;;;4866217;29;20514;-90
2021/09/01 03:24:15;;;;;;;22.60;11.38;;;12.40;99.90;;;;;;4866340;29;20041;-88
2021/09/01 03:26:40;;;;;;;18.70;10.32;;;12.40;99.90;;;;;;4865291;29;20521;-89
2021/09/01 03:29:06;;;;;;;22.00;10.23;;;12.40;99.90;;;;;;4865954;29;20036;-90
2021/09/01 03:31:31;;;;;;;19.42;9.90;;;12.40;99.90;;;;;;4865653;29;20476;-90
2021/09/01 03:33:57;;;;;;;20.75;9.13;;;12.40;99.90;;;;;;4865800;29;20120;-89
2021/09/01 03:36:23;;;;;;;22.63;9.77;;;12.40;99.90;;;;;;4865498;29;20439;-89
2021/09/01 03:38:51;;;;;;;16.77;9.63;;;12.40;99.90;;;;;;4866004;29;20036;-90
2021/09/01 03:41:16;;;;;;;18.00;8.98;;;12.40;99.90;;;;;;4865081;29;20123;-89
2021/09/01 03:43:43;;;;;;;21.17;9.75;;;12.40;99.90;;;;;;4865479;29;20513;-90
2021/09/01 03:46:08;;;;;;;19.50;9.52;;;12.40;99.90;;;;;;4864514;29;20388;-90
2021/09/01 03:48:34;;;;;;;20.30;9.02;;;12.50;99.90;;;;;;4865675;29;20025;-90
2021/09/01 03:51:00;;;;;;;15.23;8.75;;;12.50;99.90;;;;;;4865111;29;20072;-90
2021/09/01 03:53:25;;;;;;;13.05;8.25;;;12.50;99.90;;;;;;4864999;29;20065;-90
2021/09/01 03:55:51;;;;;;;17.23;7.93;;;12.50;99.90;;;;;;4865332;29;20068;-89
2021/09/01 03:58:16;;;;;;;15.98;8.02;;;12.40;99.90;;;;;;4864888;29;20053;-89
2021/09/01 04:00:43;;;;;;;20.10;8.13;;;12.50;99.90;;;;;;4864884;29;20127;-89
2021/09/01 04:03:09;;;;;;;23.25;8.63;;;12.40;99.90;;;;;;4864923;29;20186;-90
2021/09/01 04:05:35;;;;;;;16.67;8.90;;;12.40;99.90;;;;;;4864784;29;20046;-90
2021/09/01 04:08:01;;;;;;;17.85;7.95;;;12.40;99.90;;;;;;4865340;29;20386;-91
2021/09/01 04:10:27;;;;;;;20.05;8.82;;;12.40;99.90;;;;;;4864682;29;20029;-90
2021/09/01 04:12:52;;;;;;;16.33;8.38;;;12.40;99.90;;;;;;4865271;29;20084;-90
2021/09/01 04:15:18;;;;;;;19.88;8.95;;;12.40;99.90;;;;;;4864627;29;20112;-90
2021/09/01 04:17:44;;;;;;;19.20;9.13;;;12.40;99.90;;;;;;4864231;29;20132;-90
2021/09/01 04:20:10;;;;;;;21.83;8.48;;;12.40;99.90;;;;;;4864158;29;20487;-90
2021/09/01 04:22:36;;;;;;;19.73;9.43;;;12.40;99.90;;;;;;4864733;29;20029;-89
2021/09/01 04:25:03;;;;;;;19.60;9.18;;;12.40;99.90;;;;;;4864561;29;20037;-89
2021/09/01 04:27:29;;;;;;;20.52;10.18;;;12.40;99.90;;;;;;4865909;29;20077;-89
2021/09/01 04:29:54;;;;;;;19.45;8.88;;;12.40;99.90;;;;;;4869849;29;20475;-90
2021/09/01 04:32:20;;;;;;;19.55;8.25;;;12.40;99.90;;;;;;4864995;29;20033;-90
2021/09/01 04:34:46;;;;;;;17.55;8.90;;;12.40;99.90;;;;;;4864164;29;20037;-90
2021/09/01 04:37:11;;;;;;;18.45;9.05;;;12.40;99.90;;;;;;4864191;29;20120;-90
2021/09/01 04:39:37;;;;;;;19.05;8.65;;;12.40;99.90;;;;;;4864165;29;20029;-90
2021/09/01 04:42:04;;;;;;;18.45;8.85;;;12.40;99.90;;;;;;4863907;29;20072;-91
2021/09/01 04:44:29;;;;;;;21.67;9.00;;;12.40;99.90;;;;;;4864064;29;20028;-90
2021/09/01 04:46:55;;;;;;;15.50;8.10;;;12.40;99.90;;;;;;4863716;29;20509;-90
2021/09/01 04:49:21;;;;;;;15.57;8.40;;;12.40;99.90;;;;;;4863408;29;20506;-90
2021/09/01 04:51:47;;;;;;;20.05;8.25;;;12.40;99.90;;;;;;4864351;29;20029;-89
2021/09/01 04:54:13;;;;;;;19.17;9.30;;;12.40;99.90;;;;;;4863917;29;20035;-90
2021/09/01 04:56:38;;;;;;;19.52;8.55;;;12.50;99.90;;;;;;4863354;29;20085;-90
2021/09/01 04:59:04;;;;;;;18.55;8.32;;;12.40;99.90;;;;;;4863764;29;20033;-90
2021/09/01 05:01:30;;;;;;;24.80;9.10;;;12.50;99.90;;;;;;4863623;29;20041;-90
2021/09/01 05:03:57;;;;;;;22.90;9.10;;;12.40;99.90;;;;;;4863932;29;20059;-90
2021/09/01 05:06:26;;;;;;;22.05;9.50;;;12.50;99.90;;;;;;4863835;29;20148;-90
2021/09/01 05:08:55;;;;;;;17.92;8.38;;;12.50;99.90;;;;;;4863802;29;20028;-91
2021/09/01 05:11:21;;;;;;;17.83;9.23;;;12.50;99.90;;;;;;4862648;29;20033;-90
2021/09/01 05:13:46;;;;;;;19.30;9.70;;;12.50;99.90;;;;;;4863939;29;20075;-90
2021/09/01 05:16:12;;;;;;;17.58;8.93;;;12.50;99.90;;;;;;4863995;29;20060;-90
2021/09/01 05:18:38;;;;;;;18.77;8.93;;;12.50;99.90;;;;;;4864136;29;20025;-90
2021/09/01 05:21:05;;;;;;;22.83;9.38;;;12.50;99.90;;;;;;4863265;29;20055;-91
2021/09/01 05:23:35;;;;;;;15.18;8.38;;;12.50;99.90;;;;;;4863311;29;20025;-90
2021/09/01 05:26:05;;;;;;;18.17;10.02;;;12.50;99.90;;;;;;4862945;29;20044;-92
2021/09/01 05:28:34;;;;;;;22.92;10.20;;;12.50;99.90;;;;;;4863624;29;20037;-90
2021/09/01 05:31:01;;;;;;;20.80;10.02;;;12.50;99.90;;;;;;4863278;29;20041;-90
2021/09/01 05:33:43;;;;;;;23.73;10.18;;;12.50;99.90;;;;;;4863013;29;20084;-91
2021/09/01 05:36:09;;;;;;;20.25;9.63;;;12.50;99.90;;;;;;4863111;29;20081;-90
2021/09/01 05:38:34;;;;;;;22.10;9.32;;;12.50;99.90;;;;;;4862874;29;20033;-90
2021/09/01 05:41:01;;;;;;;23.48;9.43;;;12.60;99.90;;;;;;4862899;29;20033;-90
2021/09/01 05:43:27;;;;;;;22.88;9.43;;;12.60;99.90;;;;;;4862931;29;20116;-90
2021/09/01 05:45:53;;;;;;;25.02;10.40;;;12.50;99.90;;;;;;4863729;29;20032;-90
2021/09/01 05:48:21;;;;;;;23.60;9.60;;;12.60;99.90;;;;;;4863226;29;20033;-90
2021/09/01 05:50:55;;;;;;;23.40;10.48;;;12.60;99.90;;;;;;4863582;29;20335;-90
2021/09/01 05:53:22;;;;;;;20.25;8.82;;;12.60;99.90;;;;;;4863424;29;20024;-89
2021/09/01 05:55:52;;;;;;;22.73;9.70;;;12.60;99.90;;;;;;4863394;29;20052;-90
2021/09/01 05:58:20;;;;;;;24.38;10.52;;;12.60;99.90;;;;;;4862477;29;20028;-90
2021/09/01 06:00:53;;;;;;;22.52;11.07;;;12.60;99.90;;;;;;4862503;29;20499;-90
2021/09/01 06:03:33;;;;;;;18.27;9.38;;;12.60;99.90;;;;;;4863000;29;20039;-90
2021/09/01 06:06:02;;;;;;;22.17;11.20;;;12.60;99.90;;;;;;4862520;29;20096;-90
2021/09/01 06:08:33;;;;;;;22.23;10.23;;;12.60;99.90;;;;;;4862496;29;20124;-90
2021/09/01 06:11:03;;;;;;;19.88;9.60;;;12.60;99.90;;;;;;4862667;29;20081;-90
2021/09/01 06:13:29;;;;;;;24.13;9.80;;;12.70;99.90;;;;;;4862343;29;20021;-90
2021/09/01 06:15:56;;;;;;;24.38;9.85;;;12.70;99.90;;;;;;4862805;29;20058;-90
2021/09/01 06:18:22;;;;;;;20.38;10.00;;;12.60;99.90;;;;;;4862994;29;20100;-90
2021/09/01 06:20:48;;;;;;;21.25;9.63;;;12.70;99.90;;;;;;4862649;29;20061;-90
2021/09/01 06:23:14;;;;;;;18.90;9.02;;;12.60;99.90;;;;;;4863463;29;20041;-90
2021/09/01 06:25:40;;;;;;;21.48;10.40;;;12.70;99.90;;;;;;4862729;29;20053;-90
2021/09/01 06:28:07;;;;;;;20.30;9.90;;;12.70;99.90;;;;;;4862934;29;20033;-90
2021/09/01 06:37:54;;;;;;;23.10;10.35;;;12.70;99.90;;;;;;4908012;29;20150;-90
2021/09/01 06:40:21;;;;;;;27.20;9.07;;;12.80;99.90;;;;;;4949663;29;20036;-90
2021/09/01 06:42:47;;;;;;;21.13;10.60;;;12.80;99.90;;;;;;4908610;29;20028;-92
2021/09/01 06:45:13;;;;;;;23.63;9.68;;;12.80;99.90;;;;;;4928569;29;20509;-92
2021/09/01 06:47:42;;;;;;;18.80;9.55;;;12.80;99.90;;;;;;4926254;29;20038;-91
2021/09/01 06:50:10;;;;;;;22.80;10.52;;;12.80;99.90;;;;;;4928063;29;20028;-92
2021/09/01 06:52:36;;;;;;;20.38;9.55;;;12.80;99.90;;;;;;4927469;29;20035;-92
2021/09/01 06:55:02;;;;;;;23.23;9.70;;;12.80;99.90;;;;;;4946070;29;20292;-91
2021/09/01 06:57:28;;;;;;;25.20;9.38;;;12.80;99.90;;;;;;4951496;29;20608;-92
2021/09/01 06:59:53;;;;;;;17.77;9.18;;;12.90;99.90;;;;;;4922822;29;20020;-91
2021/09/01 07:02:19;;;;;;;15.13;8.07;;;12.90;99.90;;;;;;4911409;29;20598;-91
2021/09/01 07:04:45;;;;;;;20.40;9.32;;;12.90;99.90;;;;;;4921105;29;20052;-92
2021/09/01 07:07:11;;;;;;;14.93;8.40;;;12.90;99.90;;;;;;4919257;29;20034;-90
2021/09/01 07:09:36;;;;;;;11.50;7.63;;;12.90;99.90;;;;;;4921371;29;20431;-91
2021/09/01 07:12:02;;;;;;;17.25;9.50;;;12.90;99.90;;;;;;4919629;29;20027;-91
2021/09/01 07:14:28;;;;;;;16.02;8.82;;;12.90;99.90;;;;;;4918960;29;20038;-91
2021/09/01 07:19:29;;;;;;;14.88;8.40;;;12.90;99.90;;;;;;5243007;23;20071;-89
2021/09/01 07:21:55;;;;;;;18.23;8.93;;;13.00;99.90;;;;;;5094328;23;20065;-90
2021/09/01 07:24:20;;;;;;;16.20;9.55;;;13.00;99.90;;;;;;4869360;29;20052;-91
2021/09/01 07:26:46;;;;;;;19.00;9.63;;;13.00;99.90;;;;;;4856282;29;20033;-92
2021/09/01 07:29:12;;;;;;;21.30;9.02;;;13.00;99.90;;;;;;4867542;29;20081;-90
2021/09/01 07:31:37;;;;;;;17.55;9.55;;;13.00;99.90;;;;;;4889565;29;20032;-92
2021/09/01 07:34:03;;;;;;;25.33;9.95;;;13.00;99.90;;;;;;4877926;29;20097;-92
2021/09/01 07:36:29;;;;;;;16.52;9.02;;;13.10;99.90;;;;;;4878055;29;20072;-93
2021/09/01 07:38:55;;;;;;;19.17;9.63;;;13.10;99.90;;;;;;4880746;29;20037;-92
2021/09/01 07:41:24;;;;;;;21.90;10.43;;;13.10;99.90;;;;;;4885226;29;20045;-93
2021/09/01 07:43:50;;;;;;;21.40;10.18;;;13.10;99.90;;;;;;4884358;29;20031;-93
2021/09/01 07:46:16;;;;;;;20.55;10.10;;;13.10;99.90;;;;;;4885277;29;20088;-92
2021/09/01 07:48:42;;;;;;;22.42;10.50;;;13.20;99.90;;;;;;4872296;29;20028;-92
2021/09/01 07:51:08;;;;;;;16.30;9.38;;;13.20;99.90;;;;;;4870325;29;20029;-90
2021/09/01 07:53:33;;;;;;;17.52;9.60;;;13.30;99.90;;;;;;4868003;29;20057;-91
2021/09/01 07:55:59;;;;;;;16.15;9.25;;;13.30;99.90;;;;;;4867636;29;20032;-90
2021/09/01 07:58:25;;;;;;;14.32;8.05;;;13.30;99.90;;;;;;4870163;29;20040;-95
2021/09/01 08:00:51;;;;;;;16.67;8.23;;;13.40;99.90;;;;;;4869957;29;20044;-95
2021/09/01 08:03:17;;;;;;;14.25;7.28;;;13.40;99.90;;;;;;4876201;29;20116;-95
2021/09/01 08:06:03;;;;;;;14.32;7.18;;;13.50;99.90;;;;;;4883545;29;20032;-96
2021/09/01 08:08:34;;;;;;;12.95;6.60;;;13.60;99.90;;;;;;4879664;29;20198;-95
2021/09/01 08:10:59;;;;;;;11.60;6.00;;;13.60;99.90;;;;;;4884895;29;20041;-96
2021/09/01 08:13:28;;;;;;;11.73;6.00;;;13.60;99.90;;;;;;4878984;29;20084;-95
2021/09/01 08:15:54;;;;;;;10.18;5.85;;;13.70;99.90;;;;;;4884881;29;20028;-93
2021/09/01 08:18:19;;;;;;;15.95;6.15;;;13.70;99.90;;;;;;4877089;29;20033;-93
2021/09/01 08:20:45;;;;;;;10.90;5.95;;;13.80;99.90;;;;;;4869445;29;20048;-93
2021/09/01 08:23:11;;;;;;;13.02;6.15;;;13.80;99.90;;;;;;4865644;29;20037;-92
2021/09/01 08:25:37;;;;;;;9.77;5.68;;;13.90;99.90;;;;;;4856656;29;20120;-93
2021/09/01 08:28:03;;;;;;;14.57;6.05;;;13.90;99.90;;;;;;4859659;29;20056;-94
2021/09/01 08:30:29;;;;;;;10.98;6.55;;;14.00;99.90;;;;;;4859841;29;20037;-93
2021/09/01 08:32:55;;;;;;;11.65;5.78;;;14.00;99.90;;;;;;4860497;29;20110;-94
2021/09/01 08:35:24;;;;;;;10.20;5.63;;;14.10;99.90;;;;;;4863631;29;20108;-93
2021/09/01 08:37:50;;;;;;;10.82;5.60;;;14.10;99.90;;;;;;4853319;29;20414;-93
2021/09/01 08:40:16;;;;;;;8.38;5.45;;;14.10;99.90;;;;;;4864699;29;20084;-94
2021/09/01 08:42:48;;;;;;;9.02;5.22;;;14.20;99.90;;;;;;4864073;29;20044;-94
2021/09/01 08:45:14;;;;;;;10.07;5.25;;;14.20;99.90;;;;;;4863448;29;20021;-94
2021/09/01 08:47:41;;;;;;;7.63;5.07;;;14.30;99.90;;;;;;4858331;29;20498;-91
2021/09/01 08:50:08;;;;;;;9.65;5.10;;;14.30;99.90;;;;;;4866623;29;20058;-94
2021/09/01 08:52:38;;;;;;;9.88;5.43;;;14.30;99.90;;;;;;4863361;29;20029;-93
2021/09/01 08:55:12;;;;;;;10.02;5.28;;;14.40;99.90;;;;;;4861446;29;20029;-94
2021/09/01 08:57:38;;;;;;;9.88;4.88;;;14.50;99.90;;;;;;4857352;29;20614;-94
2021/09/01 09:00:06;;;;;;;13.90;4.68;;;14.50;99.90;;;;;;4864381;29;20037;-95
2021/09/01 09:02:32;;;;;;;11.80;5.40;;;14.50;99.90;;;;;;4856416;29;20052;-93
2021/09/01 09:05:02;;;;;;;9.05;5.18;;;14.60;99.90;;;;;;4854294;29;20677;-93
2021/09/01 09:07:28;;;;;;;9.40;4.95;;;14.60;99.90;;;;;;4868981;29;20479;-92
2021/09/01 09:09:54;;;;;;;7.03;4.45;;;14.70;99.90;;;;;;4860855;29;20033;-92
2021/09/01 09:12:33;;;;;;;6.95;4.53;;;14.60;99.90;;;;;;4859894;29;20112;-93
2021/09/01 09:15:00;;;;;;;7.28;4.50;;;14.60;99.90;;;;;;4864330;29;20025;-93
2021/09/01 09:17:36;;;;;;;6.65;4.35;;;14.50;99.90;;;;;;4861829;29;20040;-94
2021/09/01 09:20:06;;;;;;;8.52;4.65;;;14.50;99.90;;;;;;4845938;29;20543;-94
2021/09/01 09:22:40;;;;;;;7.40;4.22;;;14.50;99.90;;;;;;4856852;29;20065;-92
2021/09/01 09:25:10;;;;;;;7.57;4.32;;;14.40;99.90;;;;;;4884250;29;20096;-94
2021/09/01 09:28:03;;;;;;;7.33;5.20;;;14.30;99.90;;;;;;4871941;29;20025;-96
2021/09/01 09:30:44;;;;;;;9.15;5.18;;;14.30;99.90;;;;;;4862799;29;20132;-93
2021/09/01 09:33:13;;;;;;;;;;;14.30;99.90;;;;;;4855443;29;20490;-91
2021/09/01 09:36:00;;;;;;;9.43;6.13;;;14.30;99.90;;;;;;4874316;29;20425;-94
2021/09/01 09:38:41;;;;;;;12.43;6.40;;;14.30;99.90;;;;;;4877702;29;20032;-95
2021/09/01 09:41:32;;;;;;;11.63;7.38;;;14.30;99.90;;;;;;4866033;29;20033;-94
2021/09/01 09:44:12;;;;;;;10.60;6.55;;;14.30;99.90;;;;;;4986583;23;20046;-94
2021/09/01 09:46:48;;;;;;;13.00;7.45;;;14.40;99.90;;;;;;4926337;29;20016;-94
2021/09/01 09:49:14;;;;;;;13.45;7.53;;;14.40;99.90;;;;;;4902122;29;20056;-94
2021/09/01 09:51:43;;;;;;;12.73;7.32;;;14.40;99.90;;;;;;4904487;29;20083;-92
2021/09/01 09:54:18;;;;;;;17.60;7.88;;;14.40;99.90;;;;;;4919681;29;20083;-93
2021/09/01 09:56:45;;;;;;;14.75;7.18;;;14.50;99.90;;;;;;4917778;29;20024;-94
2021/09/01 09:59:17;;;;;;;18.65;7.88;;;14.60;99.90;;;;;;4901167;29;20020;-95
2021/09/01 10:01:44;;;;;;;19.20;8.02;;;14.60;99.90;;;;;;4919033;29;20056;-96
2021/09/01 10:04:10;;;;;;;17.02;8.25;;;14.70;99.90;;;;;;4908058;29;20056;-95
2021/09/01 10:06:36;;;;;;;14.45;8.57;;;14.70;99.90;;;;;;4908266;29;20028;-94
2021/09/01 10:09:04;;;;;;;20.15;8.85;;;14.70;99.90;;;;;;4908004;29;20016;-95
2021/09/01 10:11:32;;;;;;;12.60;7.70;;;14.80;99.90;;;;;;4907407;29;20495;-96
2021/09/01 10:13:59;;;;;;;16.20;7.95;;;14.80;99.90;;;;;;4906195;29;20119;-94
2021/09/01 10:16:34;;;;;;;16.75;7.60;;;14.80;99.90;;;;;;4906077;29;20032;-95
2021/09/01 10:19:14;;;;;;;13.57;8.20;;;14.90;99.90;;;;;;4910060;29;20039;-94
2021/09/01 10:22:07;;;;;;;16.67;8.43;;;15.00;99.90;;;;;;4900356;29;20517;-94
2021/09/01 10:24:37;;;;;;;16.25;8.20;;;15.00;99.90;;;;;;4879625;29;20306;-96
2021/09/01 10:27:16;;;;;;;14.40;8.40;;;15.10;99.90;;;;;;4879248;29;20063;-95
2021/09/01 10:30:05;;;;;;;16.48;8.13;;;15.10;99.90;;;;;;4890951;29;20032;-95
2021/09/01 10:32:51;;;;;;;13.07;7.97;;;15.20;99.90;;;;;;4891745;29;20036;-96
2021/09/01 10:35:20;;;;;;;15.18;8.68;;;15.20;99.90;;;;;;4887978;29;20016;-95
2021/09/01 10:37:46;;;;;;;19.15;8.80;;;15.20;99.90;;;;;;4879784;29;20035;-94
2021/09/01 10:40:35;;;;;;;18.25;8.68;;;15.30;99.90;;;;;;4878216;29;20021;-95
2021/09/01 10:43:17;;;;;;;17.80;9.90;;;15.30;99.90;;;;;;4884947;29;20048;-96
2021/09/01 10:45:49;;;;;;;14.18;7.82;;;15.40;99.90;;;;;;4877274;29;20039;-95
2021/09/01 10:48:16;;;;;;;28.33;10.95;;;15.40;99.90;;;;;;4886873;29;20021;-94
2021/09/01 10:50:47;;;;;;;20.92;9.10;;;15.50;99.90;;;;;;4886354;29;20092;-95
2021/09/01 10:53:19;;;;;;;;;;;15.50;99.90;;;;;;4884899;29;20115;-95
2021/09/01 10:55:53;;;;;;;18.05;8.13;;;15.60;99.90;;;;;;4884430;29;19932;-94
2021/09/01 10:58:28;;;;;;;18.38;10.07;;;15.70;99.90;;;;;;4900713;29;20017;-95
2021/09/01 11:00:57;;;;;;;19.73;8.43;;;15.70;99.90;;;;;;4919548;29;20044;-95
2021/09/01 11:03:46;;;;;;;14.35;7.53;;;15.80;99.90;;;;;;4903722;29;20492;-94
2021/09/01 11:06:15;;;;;;;19.75;8.73;;;15.90;99.90;;;;;;4913960;29;20045;-93
2021/09/01 11:09:09;;;;;;;18.38;9.05;;;15.90;99.90;;;;;;4919203;29;20029;-95
2021/09/01 11:11:36;;;;;;;17.95;8.38;;;16.00;99.90;;;;;;4903627;29;20036;-95
2021/09/01 11:14:11;;;;;;;13.93;7.90;;;16.00;99.90;;;;;;4906851;29;20040;-95
2021/09/01 11:16:41;;;;;;;18.48;8.88;;;16.10;99.90;;;;;;4906952;29;20024;-96
2021/09/01 11:19:12;;;;;;;20.70;9.18;;;16.10;99.90;;;;;;4920067;29;20490;-95
2021/09/01 11:21:44;;;;;;;15.32;9.32;;;16.20;99.90;;;;;;4886128;29;20048;-96
2021/09/01 11:24:12;;;;;;;15.80;8.80;;;16.20;99.90;;;;;;4904228;29;20033;-94
2021/09/01 11:26:38;;;;;;;18.80;9.48;;;16.10;99.90;;;;;;4920078;29;20489;-96
2021/09/01 11:29:08;;;;;;;16.10;9.35;;;16.10;99.90;;;;;;4919827;29;20032;-96
2021/09/01 11:31:44;;;;;;;20.23;9.75;;;16.00;99.90;;;;;;4918856;29;20032;-94
2021/09/01 11:34:17;;;;;;;21.75;10.10;;;16.00;99.90;;;;;;4901946;29;20020;-94
2021/09/01 11:36:44;;;;;;;16.08;10.50;;;15.90;99.90;;;;;;4896210;29;20028;-95
2021/09/01 11:39:13;;;;;;;22.33;10.73;;;15.90;99.90;;;;;;4902197;29;20036;-95
2021/09/01 11:41:39;;;;;;;22.63;11.52;;;15.90;99.90;;;;;;4887700;29;20041;-95
2021/09/01 11:44:09;;;;;;;20.00;11.35;;;15.90;99.90;;;;;;4904456;29;20036;-95
2021/09/01 11:46:59;;;;;;;25.25;11.18;;;15.80;99.90;;;;;;4905936;29;20019;-95
2021/09/01 11:49:33;;;;;;;21.20;10.18;;;15.80;99.90;;;;;;4919312;29;20048;-95
2021/09/01 11:52:02;;;;;;;20.52;10.35;;;15.80;99.90;;;;;;4923525;29;20103;-94
2021/09/01 11:54:37;;;;;;;21.27;11.13;;;15.70;99.90;;;;;;4905463;29;20044;-96
2021/09/01 11:57:08;;;;;;;29.50;12.25;;;15.70;99.90;;;;;;4903236;29;20033;-95
2021/09/01 11:59:35;;;;;;;23.77;11.30;;;15.70;99.90;;;;;;4901687;29;20107;-95
2021/09/01 12:02:30;;;;;;;;;;;;;;;;;;;;;
2021/09/01 12:05:02;;;;;;;25.20;11.32;;;15.80;99.90;;;;;;4900324;29;20064;-92
2021/09/01 12:07:32;;;;;;;19.60;10.93;;;15.80;99.90;;;;;;4896050;29;20096;-95
2021/09/01 12:09:59;;;;;;;;;;;15.90;99.90;;;;;;4899922;29;20021;-94
2021/09/01 12:12:38;;;;;;;20.73;10.93;;;15.90;99.90;;;;;;4915302;29;20472;-94
2021/09/01 12:15:14;;;;;;;22.83;12.18;;;15.90;99.90;;;;;;4902339;29;20033;-94
2021/09/01 12:17:59;;;;;;;24.10;12.30;;;15.90;99.90;;;;;;4921770;29;20028;-96
2021/09/01 12:20:29;;;;;;;24.95;12.40;;;16.00;99.90;;;;;;4906059;29;20035;-96
2021/09/01 12:22:55;;;;;;;18.48;11.52;;;16.10;99.90;;;;;;4921315;29;20044;-95
2021/09/01 12:25:25;;;;;;;24.67;11.50;;;16.10;99.90;;;;;;4902765;29;20025;-94
2021/09/01 12:28:14;;;;;;;24.92;12.00;;;16.20;99.90;;;;;;4904419;29;20043;-94
2021/09/01 12:30:45;;;;;;;24.50;11.25;;;16.30;99.90;;;;;;4897706;29;20029;-94
2021/09/01 12:33:19;;;;;;;22.75;11.48;;;16.40;99.90;;;;;;4919002;29;20021;-95
2021/09/01 12:35:57;;;;;;;20.30;10.93;;;16.40;99.90;;;;;;4918699;29;20076;-95
2021/09/01 12:38:30;;;;;;;28.33;11.23;;;16.50;99.90;;;;;;4905143;29;20055;-95
2021/09/01 12:40:56;;;;;;;25.48;11.85;;;16.60;99.90;;;;;;4919562;29;20024;-96
2021/09/01 12:43:29;;;;;;;24.55;10.73;;;16.60;99.90;;;;;;4905659;29;20048;-94
2021/09/01 12:46:01;;;;;;;23.08;10.40;;;16.70;99.90;;;;;;4900521;29;20068;-96
2021/09/01 12:48:48;;;;;;;28.10;10.82;;;16.70;99.90;;;;;;4906191;29;20059;-95
2021/09/01 12:51:15;;;;;;;22.73;11.15;;;16.70;99.90;;;;;;4903584;29;20250;-95
2021/09/01 12:53:41;;;;;;;20.85;11.02;;;16.60;99.90;;;;;;4904246;29;20050;-94